Time;durP1;ratioP1;P1;durP2;ratioP2;P2;SDS_P1;SDS_P2;PMS_P1;PMS_P2;Temp;Humidity;BMP_temperature;BMP_pressure;BME280_temperature;BME280_humidity;BME280_pressure;Samples;Min_cycle;Max_cycle;Signal;HPM_P1;HPM_P2
2021/04/23 00:02:23;;;;;;;20.53;7.43;;;2.50;91.30;;;;;;5011818;28;20400;-71
2021/04/23 00:04:49;;;;;;;25.10;7.97;;;2.50;91.50;;;;;;5008639;28;20046;-71
2021/04/23 00:07:18;;;;;;;17.93;7.67;;;2.50;91.70;;;;;;5027581;28;20042;-71
2021/04/23 00:09:44;;;;;;;18.50;6.90;;;2.50;91.80;;;;;;4994610;28;20057;-72
2021/04/23 00:12:16;;;;;;;16.00;6.50;;;2.70;91.90;;;;;;5031340;28;20037;-72
2021/04/23 00:14:48;;;;;;;19.40;7.07;;;2.70;91.90;;;;;;5006400;28;20525;-72
2021/04/23 00:17:16;;;;;;;19.90;6.73;;;2.70;91.80;;;;;;5032244;28;20052;-72
2021/04/23 00:19:44;;;;;;;17.27;7.00;;;2.80;91.90;;;;;;4995789;28;20058;-71
2021/04/23 00:22:11;;;;;;;18.43;7.73;;;2.80;91.90;;;;;;5038858;28;20140;-71
2021/04/23 00:24:38;;;;;;;20.93;7.53;;;2.80;92.00;;;;;;5027840;28;20058;-72
2021/04/23 00:27:06;;;;;;;16.60;7.70;;;2.90;92.00;;;;;;5003139;28;20045;-72
2021/04/23 00:29:33;;;;;;;18.27;6.83;;;3.00;92.10;;;;;;5048836;28;20040;-72
2021/04/23 00:34:44;;;;;;;17.90;7.50;;;3.10;92.20;;;;;;5028408;28;20111;-72
2021/04/23 00:37:10;;;;;;;25.10;6.83;;;3.10;92.20;;;;;;5030932;28;20493;-71
2021/04/23 00:39:39;;;;;;;16.93;7.13;;;3.10;92.10;;;;;;5037084;28;20078;-72
2021/04/23 00:42:06;;;;;;;15.27;6.93;;;3.00;91.90;;;;;;5029141;28;21172;-71
2021/04/23 00:44:33;;;;;;;16.93;6.20;;;2.90;91.90;;;;;;5047414;28;20044;-72
2021/04/23 00:46:59;;;;;;;17.50;6.30;;;2.90;92.00;;;;;;5029602;28;20124;-72
2021/04/23 00:49:25;;;;;;;16.77;6.43;;;2.80;92.10;;;;;;5001767;28;20650;-72
2021/04/23 00:51:57;;;;;;;20.17;7.37;;;2.80;92.20;;;;;;5009476;28;20044;-71
2021/04/23 00:54:25;;;;;;;15.37;6.40;;;2.70;92.20;;;;;;5026793;28;20041;-72
2021/04/23 00:56:51;;;;;;;20.40;6.93;;;2.70;92.30;;;;;;5028811;28;20045;-72
2021/04/23 00:59:17;;;;;;;16.63;7.00;;;2.70;92.70;;;;;;5032288;28;20041;-72
2021/04/23 01:02:00;;;;;;;15.37;6.43;;;2.60;92.20;;;;;;5020992;28;20044;-72
2021/04/23 01:04:29;;;;;;;20.83;6.27;;;2.60;92.40;;;;;;5008159;28;20490;-72
2021/04/23 01:06:55;;;;;;;12.40;6.30;;;2.60;92.30;;;;;;5031739;28;20041;-72
2021/04/23 01:09:25;;;;;;;21.60;6.77;;;2.60;92.40;;;;;;5014314;28;20091;-72
2021/04/23 01:11:52;;;;;;;16.83;6.57;;;2.60;92.50;;;;;;5025609;28;20117;-72
2021/04/23 01:14:18;;;;;;;15.07;6.17;;;2.60;92.60;;;;;;5024929;28;20033;-71
2021/04/23 01:16:45;;;;;;;16.83;6.00;;;2.60;92.50;;;;;;5026510;28;20499;-72
2021/04/23 01:19:15;;;;;;;18.27;6.70;;;2.60;92.60;;;;;;5025945;28;20052;-71
2021/04/23 01:21:42;;;;;;;22.83;7.77;;;2.50;92.60;;;;;;5026029;28;20042;-72
2021/04/23 01:24:10;;;;;;;14.90;6.90;;;2.50;92.60;;;;;;5024135;28;20594;-72
2021/04/23 01:26:44;;;;;;;20.57;6.90;;;2.50;92.60;;;;;;5007184;28;20162;-72
2021/04/23 01:29:13;;;;;;;16.67;6.20;;;2.50;92.60;;;;;;5027121;28;20041;-72
2021/04/23 01:31:43;;;;;;;17.30;6.90;;;2.50;92.60;;;;;;5008949;28;20144;-72
2021/04/23 01:34:17;;;;;;;15.10;6.20;;;2.60;92.80;;;;;;5003541;28;20444;-72
2021/04/23 01:36:44;;;;;;;16.50;6.10;;;2.50;92.90;;;;;;5025103;28;20115;-72
2021/04/23 01:39:16;;;;;;;17.47;6.23;;;2.60;93.00;;;;;;5024411;28;20056;-72
2021/04/23 01:41:44;;;;;;;19.87;6.70;;;2.60;93.10;;;;;;5007400;28;20804;-72
2021/04/23 01:44:11;;;;;;;16.03;5.67;;;2.70;93.10;;;;;;5026618;28;20039;-72
2021/04/23 01:46:38;;;;;;;19.50;6.23;;;2.70;93.30;;;;;;5019326;28;20221;-71
2021/04/23 01:49:09;;;;;;;19.83;6.50;;;2.70;93.30;;;;;;5025645;28;20076;-72
2021/04/23 01:51:35;;;;;;;16.43;6.00;;;2.60;93.20;;;;;;5006653;28;20049;-71
2021/04/23 01:54:02;;;;;;;17.20;5.37;;;2.60;93.10;;;;;;5034509;28;20187;-72
2021/04/23 01:56:28;;;;;;;14.83;5.67;;;2.60;93.30;;;;;;5021026;28;20033;-72
2021/04/23 01:58:54;;;;;;;16.70;6.27;;;2.50;93.30;;;;;;5040373;28;20036;-72
2021/04/23 02:01:19;;;;;;;19.30;6.07;;;2.50;93.40;;;;;;5023446;28;20061;-72
2021/04/23 02:03:47;;;;;;;14.30;5.97;;;2.60;93.40;;;;;;4998473;28;20037;-72
2021/04/23 02:06:13;;;;;;;16.67;6.00;;;2.60;93.60;;;;;;5015778;28;20044;-72
2021/04/23 02:08:39;;;;;;;15.17;5.70;;;2.60;93.50;;;;;;5014217;28;20053;-72
2021/04/23 02:11:09;;;;;;;13.80;5.50;;;2.60;93.30;;;;;;5036491;28;20088;-72
2021/04/23 02:13:38;;;;;;;15.63;5.88;;;2.60;93.30;;;;;;5038996;28;20057;-72
2021/04/23 02:16:07;;;;;;;18.97;5.87;;;2.50;93.30;;;;;;5002465;28;20041;-72
2021/04/23 02:18:33;;;;;;;14.10;5.27;;;2.40;93.30;;;;;;5001862;28;20057;-72
2021/04/23 02:20:59;;;;;;;16.90;5.40;;;2.30;93.30;;;;;;5015905;28;20072;-72
2021/04/23 02:23:25;;;;;;;23.07;6.43;;;2.30;93.40;;;;;;5025921;28;20065;-72
2021/04/23 02:25:53;;;;;;;16.17;5.93;;;2.20;93.50;;;;;;5003706;28;20381;-72
2021/04/23 02:28:22;;;;;;;20.30;7.10;;;2.20;93.50;;;;;;5020532;28;20041;-72
2021/04/23 02:30:54;;;;;;;19.17;5.53;;;2.30;93.80;;;;;;5005730;28;20064;-72
2021/04/23 02:33:22;;;;;;;16.53;6.13;;;2.30;93.70;;;;;;5034481;28;20050;-72
2021/04/23 02:35:49;;;;;;;24.50;7.30;;;2.30;93.70;;;;;;5021852;28;20457;-72
2021/04/23 02:38:16;;;;;;;20.47;6.10;;;2.30;93.80;;;;;;5018430;28;20044;-72
2021/04/23 02:40:42;;;;;;;19.97;6.47;;;2.40;94.10;;;;;;5020961;28;20041;-72
2021/04/23 02:43:13;;;;;;;21.73;6.17;;;2.50;94.30;;;;;;4997885;28;20108;-71
2021/04/23 02:45:41;;;;;;;20.57;6.13;;;2.60;94.40;;;;;;5024900;28;20050;-72
2021/04/23 02:48:09;;;;;;;17.73;5.70;;;2.70;94.30;;;;;;5028629;28;20065;-73
2021/04/23 02:50:36;;;;;;;19.43;6.47;;;2.60;94.30;;;;;;5024060;28;20046;-72
2021/04/23 02:53:06;;;;;;;15.03;5.20;;;2.70;94.30;;;;;;4989277;28;20113;-72
2021/04/23 02:55:34;;;;;;;16.20;5.33;;;2.70;94.30;;;;;;5022818;28;20044;-72
2021/04/23 02:58:14;;;;;;;20.13;5.23;;;2.70;94.30;;;;;;5029080;28;20049;-72
2021/04/23 03:00:46;;;;;;;17.70;5.67;;;2.80;94.30;;;;;;5004462;28;20050;-72
2021/04/23 03:03:12;;;;;;;20.87;6.20;;;2.70;94.20;;;;;;5034539;28;20068;-72
2021/04/23 03:05:41;;;;;;;19.90;6.20;;;2.70;94.20;;;;;;5022495;28;20045;-72
2021/04/23 03:08:08;;;;;;;22.27;5.87;;;2.60;94.10;;;;;;5008228;28;20037;-72
2021/04/23 03:10:42;;;;;;;16.87;5.37;;;2.60;94.10;;;;;;5010973;28;20056;-72
2021/04/23 03:13:13;;;;;;;17.10;5.77;;;2.60;94.10;;;;;;5002431;28;20046;-72
2021/04/23 03:15:39;;;;;;;17.07;6.43;;;2.60;94.20;;;;;;5027538;28;20049;-72
2021/04/23 03:18:06;;;;;;;17.97;6.33;;;2.60;94.20;;;;;;5008997;28;20037;-72
2021/04/23 03:20:33;;;;;;;19.77;5.60;;;2.60;94.20;;;;;;5039116;28;20114;-72
2021/04/23 03:22:59;;;;;;;16.63;5.63;;;2.60;94.20;;;;;;4997111;28;20033;-72
2021/04/23 03:25:28;;;;;;;16.30;6.27;;;2.60;94.20;;;;;;5019678;28;20042;-71
2021/04/23 03:27:54;;;;;;;19.90;5.40;;;2.60;94.20;;;;;;5020274;28;20042;-72
2021/04/23 03:30:27;;;;;;;21.43;5.27;;;2.70;94.30;;;;;;5025779;28;20045;-72
2021/04/23 03:32:53;;;;;;;15.67;5.60;;;2.60;94.20;;;;;;5005272;28;20080;-72
2021/04/23 03:35:20;;;;;;;20.57;6.00;;;2.60;94.20;;;;;;5024248;28;20099;-72
2021/04/23 03:37:47;;;;;;;20.27;5.50;;;2.60;94.20;;;;;;4989444;28;20049;-72
2021/04/23 03:40:17;;;;;;;14.63;5.20;;;2.50;94.10;;;;;;5021436;28;20049;-72
2021/04/23 03:42:43;;;;;;;19.48;6.32;;;2.50;94.00;;;;;;5023734;28;20045;-72
2021/04/23 03:45:13;;;;;;;16.40;6.13;;;2.40;93.90;;;;;;5019450;28;20042;-72
2021/04/23 03:47:39;;;;;;;19.90;5.27;;;2.40;93.90;;;;;;5002779;28;20045;-72
2021/04/23 03:50:10;;;;;;;16.73;5.17;;;2.30;93.80;;;;;;5015992;28;20040;-72
2021/04/23 03:52:39;;;;;;;16.47;4.90;;;2.30;93.80;;;;;;5022739;28;20613;-72
2021/04/23 03:55:08;;;;;;;12.93;5.27;;;2.20;93.80;;;;;;5017409;28;20072;-71
2021/04/23 03:57:35;;;;;;;15.10;5.43;;;2.10;93.80;;;;;;5012042;28;20034;-71
2021/04/23 04:00:08;;;;;;;15.17;5.00;;;2.10;93.90;;;;;;5032270;28;20112;-71
2021/04/23 04:02:35;;;;;;;18.97;5.47;;;2.10;94.10;;;;;;5024602;28;20083;-71
2021/04/23 04:05:02;;;;;;;20.63;5.27;;;2.10;94.00;;;;;;4992667;28;20038;-71
2021/04/23 04:07:29;;;;;;;15.13;4.93;;;2.10;94.10;;;;;;5021818;28;20059;-71
2021/04/23 04:09:55;;;;;;;13.63;5.30;;;2.10;94.00;;;;;;4996810;28;20720;-70
2021/04/23 04:12:21;;;;;;;16.70;5.20;;;2.20;94.00;;;;;;5014745;28;20556;-71
2021/04/23 04:14:47;;;;;;;12.90;4.83;;;2.10;94.00;;;;;;5000008;28;20136;-71
2021/04/23 04:17:13;;;;;;;16.93;5.30;;;2.10;94.00;;;;;;5023306;28;20120;-71
2021/04/23 04:19:39;;;;;;;17.20;5.93;;;2.10;93.90;;;;;;5013002;28;20056;-71
2021/04/23 04:22:05;;;;;;;23.00;4.90;;;2.00;94.00;;;;;;5021689;28;20072;-71
2021/04/23 04:24:31;;;;;;;14.17;5.23;;;2.00;94.10;;;;;;5030179;28;20066;-71
2021/04/23 04:26:57;;;;;;;16.40;5.13;;;2.00;94.00;;;;;;5014728;28;20124;-72
2021/04/23 04:29:23;;;;;;;16.57;5.60;;;2.00;94.00;;;;;;5024978;28;20039;-71
2021/04/23 04:31:52;;;;;;;20.80;6.07;;;2.00;94.10;;;;;;5007003;28;20112;-72
2021/04/23 04:34:18;;;;;;;15.67;5.80;;;1.90;94.00;;;;;;5008644;28;20060;-71
2021/04/23 04:36:45;;;;;;;25.83;5.83;;;1.90;94.10;;;;;;5022929;28;20045;-72
2021/04/23 04:39:12;;;;;;;19.07;5.83;;;1.90;94.20;;;;;;5026328;28;20049;-72
2021/04/23 04:41:41;;;;;;;16.20;5.57;;;1.90;94.20;;;;;;5020743;28;20488;-71
2021/04/23 04:44:07;;;;;;;21.70;7.10;;;1.90;94.20;;;;;;5015323;28;20095;-72
2021/04/23 04:46:33;;;;;;;16.73;6.40;;;1.90;94.30;;;;;;5021875;28;20043;-71
2021/04/23 04:49:00;;;;;;;19.60;6.93;;;2.00;94.30;;;;;;5024471;28;20588;-72
2021/04/23 04:51:26;;;;;;;12.80;6.63;;;2.00;94.30;;;;;;5022622;28;21397;-72
2021/04/23 04:53:52;;;;;;;18.93;6.10;;;2.00;94.20;;;;;;5027145;28;20497;-71
2021/04/23 04:56:18;;;;;;;23.10;6.17;;;2.00;94.20;;;;;;5027871;28;20041;-71
2021/04/23 04:58:44;;;;;;;18.10;6.27;;;2.00;94.30;;;;;;5039159;28;20052;-72
2021/04/23 05:01:11;;;;;;;25.03;7.07;;;2.00;94.20;;;;;;5027734;28;20048;-72
2021/04/23 05:03:38;;;;;;;20.67;8.37;;;2.00;94.30;;;;;;5021018;28;20095;-72
2021/04/23 05:06:05;;;;;;;16.83;9.17;;;2.00;94.20;;;;;;5028749;28;20444;-71
2021/04/23 05:08:31;;;;;;;16.60;8.20;;;2.00;94.20;;;;;;4996091;28;20084;-71
2021/04/23 05:11:00;;;;;;;19.40;7.40;;;2.20;94.30;;;;;;5030139;28;20037;-72
2021/04/23 05:13:26;;;;;;;16.67;7.07;;;2.10;94.20;;;;;;5035321;28;20061;-72
2021/04/23 05:15:53;;;;;;;16.57;6.20;;;2.10;94.30;;;;;;5004027;28;20443;-71
2021/04/23 05:18:19;;;;;;;19.67;7.03;;;2.30;94.30;;;;;;5015858;28;20030;-71
2021/04/23 05:20:45;;;;;;;14.07;6.70;;;2.40;94.20;;;;;;5031797;28;20041;-72
2021/04/23 05:23:11;;;;;;;17.37;5.77;;;2.40;94.20;;;;;;5008287;28;20049;-72
2021/04/23 05:25:37;;;;;;;15.10;5.90;;;2.50;94.20;;;;;;5021009;28;20500;-71
2021/04/23 05:28:04;;;;;;;18.03;7.37;;;2.70;94.30;;;;;;5026576;28;20042;-72
2021/04/23 05:30:31;;;;;;;16.73;5.60;;;2.80;94.50;;;;;;5025914;28;20065;-72
2021/04/23 05:32:59;;;;;;;13.70;4.60;;;2.90;94.50;;;;;;5023707;28;20042;-72
2021/04/23 05:35:25;;;;;;;15.10;5.00;;;3.00;94.40;;;;;;5010265;28;20042;-71
2021/04/23 05:37:52;;;;;;;16.27;4.80;;;3.10;94.30;;;;;;4991902;28;20080;-72
2021/04/23 05:40:25;;;;;;;18.23;4.73;;;3.30;94.30;;;;;;5002989;28;20073;-72
2021/04/23 05:42:52;;;;;;;18.57;4.33;;;3.50;94.40;;;;;;5022248;28;20042;-72
2021/04/23 05:45:19;;;;;;;17.07;4.27;;;3.70;94.40;;;;;;5027055;28;20037;-72
2021/04/23 05:47:45;;;;;;;10.20;3.77;;;3.90;94.20;;;;;;5009513;28;20045;-72
2021/04/23 05:50:13;;;;;;;12.50;3.83;;;4.10;94.20;;;;;;5037265;28;20061;-72
2021/04/23 05:52:40;;;;;;;13.57;4.27;;;4.20;94.10;;;;;;5009568;28;20042;-72
2021/04/23 05:55:10;;;;;;;13.70;4.00;;;4.40;94.00;;;;;;5013069;28;20111;-72
2021/04/23 05:57:39;;;;;;;13.50;3.85;;;4.40;93.80;;;;;;5015576;28;20042;-72
2021/04/23 06:00:08;;;;;;;13.57;4.27;;;4.50;93.60;;;;;;5001273;28;20609;-72
2021/04/23 06:02:34;;;;;;;14.40;4.73;;;4.70;93.50;;;;;;5005110;28;20133;-72
2021/04/23 06:05:00;;;;;;;19.57;4.97;;;4.80;93.50;;;;;;5025892;28;20400;-72
2021/04/23 06:07:27;;;;;;;10.57;4.70;;;4.80;93.40;;;;;;5040056;28;20041;-72
2021/04/23 06:09:53;;;;;;;12.37;3.90;;;4.90;93.30;;;;;;4995808;28;20125;-72
2021/04/23 06:12:18;;;;;;;13.13;3.80;;;5.00;93.20;;;;;;5027857;28;20129;-72
2021/04/23 06:14:44;;;;;;;10.17;3.33;;;5.10;93.20;;;;;;4994381;28;20464;-72
2021/04/23 06:17:11;;;;;;;11.73;3.77;;;5.20;93.00;;;;;;5022063;28;20558;-72
2021/04/23 06:19:37;;;;;;;17.07;4.37;;;5.40;92.70;;;;;;5021593;28;20053;-72
2021/04/23 06:22:06;;;;;;;15.83;3.63;;;5.60;92.70;;;;;;5024382;28;20029;-72
2021/04/23 06:24:32;;;;;;;13.60;4.43;;;5.80;92.70;;;;;;5006160;28;20061;-72
2021/04/23 06:26:59;;;;;;;13.93;3.50;;;6.00;92.50;;;;;;5041272;28;20045;-72
2021/04/23 06:29:25;;;;;;;12.93;4.40;;;6.20;92.10;;;;;;5005828;28;20052;-72
2021/04/23 06:31:51;;;;;;;16.80;4.33;;;6.40;91.80;;;;;;5018462;28;20041;-73
2021/04/23 06:34:18;;;;;;;15.07;4.00;;;6.50;91.40;;;;;;5020068;28;20049;-72
2021/04/23 06:36:44;;;;;;;16.20;4.53;;;6.60;90.90;;;;;;5022710;28;20137;-71
2021/04/23 06:39:17;;;;;;;18.20;4.33;;;6.70;90.60;;;;;;5018508;28;20037;-72
2021/04/23 06:41:47;;;;;;;11.43;4.17;;;6.70;90.10;;;;;;5023183;28;20049;-72
2021/04/23 06:44:14;;;;;;;15.27;4.50;;;6.80;90.10;;;;;;5026012;28;20038;-71
2021/04/23 06:46:44;;;;;;;14.17;4.63;;;7.00;89.20;;;;;;5002066;28;20574;-72
2021/04/23 06:49:11;;;;;;;12.60;4.10;;;7.10;89.50;;;;;;5019498;28;20049;-72
2021/04/23 06:51:37;;;;;;;11.03;4.43;;;7.30;88.80;;;;;;5020233;28;20104;-72
2021/04/23 06:54:05;;;;;;;13.60;5.00;;;7.40;88.70;;;;;;5020757;28;20106;-72
2021/04/23 06:56:31;;;;;;;10.60;4.20;;;7.50;88.50;;;;;;5021260;28;20040;-71
2021/04/23 06:58:57;;;;;;;13.23;5.57;;;7.60;86.90;;;;;;5004090;28;20049;-72
2021/04/23 07:01:23;;;;;;;12.57;5.13;;;7.60;86.20;;;;;;5034655;28;20507;-72
2021/04/23 07:03:48;;;;;;;13.10;5.17;;;7.90;86.00;;;;;;5022778;28;20046;-72
2021/04/23 07:06:14;;;;;;;12.10;4.53;;;8.00;84.50;;;;;;5000652;28;20501;-73
2021/04/23 07:08:40;;;;;;;12.87;4.77;;;8.10;82.70;;;;;;5003012;28;20116;-72
2021/04/23 07:11:07;;;;;;;14.87;5.03;;;8.10;82.80;;;;;;5022114;28;20095;-73
2021/04/23 07:13:33;;;;;;;13.00;4.70;;;7.90;81.90;;;;;;5005216;28;20041;-72
2021/04/23 07:15:59;;;;;;;12.27;5.50;;;8.00;81.60;;;;;;5021758;28;20436;-73
2021/04/23 07:18:27;;;;;;;14.60;5.63;;;7.90;82.80;;;;;;5020174;28;20152;-72
2021/04/23 07:20:54;;;;;;;14.93;5.00;;;7.90;81.70;;;;;;5035618;28;20060;-72
2021/04/23 07:23:21;;;;;;;13.70;5.20;;;7.90;82.30;;;;;;5023498;28;20042;-73
2021/04/23 07:25:47;;;;;;;12.50;4.77;;;8.00;82.60;;;;;;5037124;28;20045;-72
2021/04/23 07:28:13;;;;;;;15.03;5.27;;;8.00;82.00;;;;;;4989024;28;20147;-73
2021/04/23 07:30:40;;;;;;;10.33;4.70;;;8.00;82.20;;;;;;5021607;28;20138;-72
2021/04/23 07:33:11;;;;;;;17.00;5.97;;;8.00;82.10;;;;;;5002795;28;20046;-72
2021/04/23 07:35:37;;;;;;;13.37;5.40;;;7.90;82.70;;;;;;5022942;28;20523;-73
2021/04/23 07:38:03;;;;;;;13.70;4.93;;;8.10;82.60;;;;;;5002686;28;20045;-72
2021/04/23 07:40:30;;;;;;;10.23;4.83;;;8.20;82.40;;;;;;4997996;28;20047;-73
2021/04/23 07:42:56;;;;;;;11.27;5.20;;;8.20;80.90;;;;;;5000996;28;20687;-72
2021/04/23 07:45:22;;;;;;;11.43;6.07;;;8.30;81.40;;;;;;5022456;28;20048;-72
2021/04/23 07:47:48;;;;;;;15.60;5.60;;;8.50;79.70;;;;;;5018122;28;20055;-72
2021/04/23 07:50:18;;;;;;;9.13;4.90;;;8.60;80.10;;;;;;4990206;28;20068;-73
2021/04/23 07:52:44;;;;;;;9.93;4.77;;;8.90;80.10;;;;;;5019097;28;20045;-72
2021/04/23 07:55:15;;;;;;;10.60;5.33;;;9.00;78.60;;;;;;5020233;28;20099;-73
2021/04/23 07:57:41;;;;;;;12.77;5.30;;;9.10;77.10;;;;;;5027208;28;20046;-72
2021/04/23 08:00:11;;;;;;;11.55;4.60;;;9.00;74.30;;;;;;4998546;28;20095;-72
2021/04/23 08:02:38;;;;;;;10.23;4.75;;;8.80;74.20;;;;;;5018209;28;20436;-72
2021/04/23 08:05:05;;;;;;;9.82;4.90;;;8.70;74.10;;;;;;5020735;28;20048;-73
2021/04/23 08:07:31;;;;;;;10.25;5.38;;;8.50;74.60;;;;;;5020286;28;20045;-73
2021/04/23 08:09:56;;;;;;;9.63;5.13;;;8.50;75.60;;;;;;5007293;28;20075;-72
2021/04/23 08:12:22;;;;;;;16.43;5.83;;;8.70;74.90;;;;;;5005962;28;20045;-73
2021/04/23 08:14:48;;;;;;;11.87;4.53;;;8.90;75.70;;;;;;5024379;28;20044;-73
2021/04/23 08:17:14;;;;;;;10.40;4.80;;;9.20;75.00;;;;;;5003122;28;20047;-73
2021/04/23 08:19:41;;;;;;;9.73;4.67;;;9.50;72.80;;;;;;5024540;28;20041;-70
2021/04/23 08:22:07;;;;;;;8.77;4.53;;;9.70;69.90;;;;;;5004878;28;20038;-71
2021/04/23 08:24:32;;;;;;;9.80;4.78;;;9.70;68.90;;;;;;5023616;28;20539;-72
2021/04/23 08:26:59;;;;;;;11.30;5.18;;;9.60;68.90;;;;;;5021537;28;20041;-72
2021/04/23 08:29:25;;;;;;;11.80;5.70;;;9.40;68.90;;;;;;5005336;28;20402;-71
2021/04/23 08:31:51;;;;;;;10.60;5.72;;;9.40;68.20;;;;;;5023843;28;20120;-72
2021/04/23 08:34:17;;;;;;;11.95;5.57;;;9.40;67.90;;;;;;5003402;28;20551;-72
2021/04/23 08:36:43;;;;;;;13.13;5.47;;;9.30;68.20;;;;;;5011407;28;20037;-72
2021/04/23 08:39:11;;;;;;;11.98;5.80;;;9.20;70.60;;;;;;5027033;28;20041;-72
2021/04/23 08:41:38;;;;;;;11.57;5.50;;;9.20;70.40;;;;;;5022728;28;20454;-74
2021/04/23 08:44:05;;;;;;;12.17;5.80;;;9.20;71.60;;;;;;5042613;28;20050;-72
2021/04/23 08:46:34;;;;;;;8.02;4.43;;;9.30;71.40;;;;;;5023559;28;20068;-72
2021/04/23 08:49:01;;;;;;;8.70;4.05;;;9.30;71.50;;;;;;5026608;28;20056;-72
2021/04/23 08:51:27;;;;;;;11.00;4.85;;;9.40;71.70;;;;;;5007278;28;20061;-73
2021/04/23 08:53:55;;;;;;;8.68;4.88;;;9.50;71.00;;;;;;5023887;28;20038;-73
2021/04/23 08:56:21;;;;;;;8.25;4.82;;;9.60;67.30;;;;;;5002314;28;20061;-72
2021/04/23 08:58:47;;;;;;;14.10;5.57;;;9.60;68.30;;;;;;4994613;28;20049;-73
2021/04/23 09:01:15;;;;;;;11.57;4.88;;;9.50;69.90;;;;;;5019750;28;20041;-72
2021/04/23 09:03:41;;;;;;;10.98;5.53;;;9.50;69.80;;;;;;5025366;28;20029;-72
2021/04/23 09:06:21;;;;;;;8.82;5.10;;;9.50;70.40;;;;;;5023638;28;20041;-73
2021/04/23 09:08:53;;;;;;;10.57;5.20;;;9.50;69.60;;;;;;5019868;28;20041;-73
2021/04/23 09:11:44;;;;;;;9.52;4.82;;;9.60;69.60;;;;;;5006718;28;20156;-73
2021/04/23 09:14:13;;;;;;;8.38;5.22;;;9.60;68.60;;;;;;5022796;28;20037;-73
2021/04/23 09:16:44;;;;;;;12.80;4.78;;;9.70;69.20;;;;;;5008889;28;20049;-73
2021/04/23 09:19:35;;;;;;;10.93;4.43;;;9.70;68.00;;;;;;5026120;28;20076;-74
2021/04/23 09:22:16;;;;;;;;;;;9.60;68.20;;;;;;4994906;28;20064;-73
2021/04/23 09:24:44;;;;;;;13.07;4.82;;;9.50;69.00;;;;;;5022157;28;19933;-73
2021/04/23 09:27:11;;;;;;;7.82;4.60;;;9.50;68.50;;;;;;5007189;28;20122;-72
2021/04/23 09:29:40;;;;;;;11.15;4.63;;;9.40;68.40;;;;;;5020952;28;20103;-73
2021/04/23 09:32:16;;;;;;;8.73;4.40;;;9.40;67.70;;;;;;5025061;28;20052;-74
2021/04/23 09:34:58;;;;;;;10.45;3.92;;;9.80;64.80;;;;;;5022727;28;20128;-74
2021/04/23 09:37:26;;;;;;;8.30;3.60;;;10.20;63.90;;;;;;5037738;28;20053;-73
2021/04/23 09:40:04;;;;;;;9.93;4.13;;;10.50;63.40;;;;;;5023333;28;20052;-73
2021/04/23 09:42:44;;;;;;;7.10;3.90;;;10.60;61.70;;;;;;5038620;28;20038;-74
2021/04/23 09:45:11;;;;;;;8.50;4.43;;;10.50;59.70;;;;;;5021130;28;20123;-74
2021/04/23 09:47:38;;;;;;;8.63;4.43;;;10.40;61.50;;;;;;5037653;28;20059;-74
2021/04/23 09:50:06;;;;;;;8.98;5.10;;;10.40;63.20;;;;;;5023560;28;20041;-74
2021/04/23 09:52:33;;;;;;;8.52;5.45;;;10.40;62.50;;;;;;4996845;28;20045;-74
2021/04/23 09:55:06;;;;;;;8.45;4.47;;;10.30;63.50;;;;;;5024646;28;20395;-74
2021/04/23 09:57:34;;;;;;;8.20;4.38;;;10.20;62.80;;;;;;5008066;28;20033;-74
2021/04/23 10:00:09;;;;;;;13.43;5.82;;;10.10;64.20;;;;;;4992046;28;20547;-73
2021/04/23 10:02:35;;;;;;;8.05;4.95;;;10.10;65.30;;;;;;5021077;28;20033;-74
2021/04/23 10:05:02;;;;;;;11.02;5.90;;;10.10;64.50;;;;;;5023184;28;20594;-75
2021/04/23 10:07:31;;;;;;;10.05;4.85;;;10.10;64.80;;;;;;5020408;28;20194;-74
2021/04/23 10:09:58;;;;;;;11.40;4.97;;;10.40;65.00;;;;;;5003662;28;20125;-75
2021/04/23 10:12:49;;;;;;;10.63;5.05;;;10.90;64.10;;;;;;5020188;28;20053;-75
2021/04/23 10:15:18;;;;;;;8.18;4.63;;;11.50;60.00;;;;;;5022821;28;20119;-75
2021/04/23 10:17:56;;;;;;;10.27;5.07;;;11.60;59.30;;;;;;5017580;28;20046;-74
2021/04/23 10:20:26;;;;;;;10.63;5.40;;;11.50;58.30;;;;;;5018930;28;20116;-74
2021/04/23 10:22:57;;;;;;;10.45;5.20;;;11.30;57.80;;;;;;5018257;28;20033;-75
2021/04/23 10:25:25;;;;;;;10.82;5.50;;;11.20;58.80;;;;;;5022033;28;20208;-75
2021/04/23 10:27:52;;;;;;;8.45;5.28;;;11.40;58.00;;;;;;4999716;28;20084;-75
2021/04/23 10:30:21;;;;;;;12.68;5.63;;;11.70;59.30;;;;;;5021636;28;20346;-75
2021/04/23 10:32:49;;;;;;;9.95;5.07;;;12.10;56.30;;;;;;5002847;28;20045;-75
2021/04/23 10:35:15;;;;;;;9.73;5.30;;;12.30;54.00;;;;;;4989729;28;20045;-75
2021/04/23 10:37:43;;;;;;;8.23;5.13;;;12.20;54.50;;;;;;5020911;28;20041;-75
2021/04/23 10:40:10;;;;;;;10.85;6.18;;;11.90;53.50;;;;;;5013557;28;20041;-75
2021/04/23 10:42:47;;;;;;;9.00;5.25;;;11.70;55.40;;;;;;5022696;28;20091;-75
2021/04/23 10:45:21;;;;;;;10.73;5.68;;;11.60;53.60;;;;;;5006811;28;20038;-75
2021/04/23 10:47:49;;;;;;;10.77;4.95;;;11.60;56.40;;;;;;5004910;28;20049;-75
2021/04/23 10:50:18;;;;;;;8.20;5.13;;;11.90;57.10;;;;;;5009278;28;20045;-75
2021/04/23 10:53:01;;;;;;;13.10;5.80;;;12.20;56.30;;;;;;5018909;28;20042;-75
2021/04/23 10:55:53;;;;;;;12.85;5.88;;;12.20;54.50;;;;;;5020635;28;20041;-75
2021/04/23 10:58:40;;;;;;;9.55;5.10;;;12.10;54.50;;;;;;5015352;28;20038;-75
2021/04/23 11:01:12;;;;;;;8.52;5.13;;;12.00;52.50;;;;;;5021810;28;20042;-74
2021/04/23 11:03:39;;;;;;;10.88;5.35;;;11.90;53.40;;;;;;5027590;28;20040;-75
2021/04/23 11:06:06;;;;;;;7.90;4.78;;;11.90;54.50;;;;;;5022521;28;20041;-75
2021/04/23 11:08:59;;;;;;;10.30;5.10;;;11.90;54.30;;;;;;5023868;28;20392;-73
2021/04/23 11:11:33;;;;;;;11.40;5.22;;;11.90;54.40;;;;;;5016191;28;20128;-75
2021/04/23 11:14:21;;;;;;;8.18;4.70;;;11.80;52.80;;;;;;5023755;28;20033;-75
2021/04/23 11:16:47;;;;;;;8.85;5.50;;;11.90;54.30;;;;;;5016157;28;20049;-75
2021/04/23 11:19:20;;;;;;;9.27;5.65;;;12.10;53.20;;;;;;5017323;28;20469;-75
2021/04/23 11:21:50;;;;;;;9.43;4.80;;;12.10;50.30;;;;;;5035538;28;20539;-74
2021/04/23 11:24:29;;;;;;;7.47;4.60;;;11.90;52.00;;;;;;5020255;28;20037;-75
2021/04/23 11:26:56;;;;;;;9.50;5.15;;;11.80;53.80;;;;;;5019368;28;20049;-74
2021/04/23 11:29:23;;;;;;;9.02;4.40;;;11.90;53.00;;;;;;5022620;28;20400;-75
2021/04/23 11:32:11;;;;;;;10.52;4.75;;;12.20;52.20;;;;;;5034206;28;20042;-75
2021/04/23 11:34:52;;;;;;;6.40;3.92;;;12.60;51.50;;;;;;5032165;28;20061;-75
2021/04/23 11:37:18;;;;;;;7.75;4.13;;;13.00;51.80;;;;;;5021530;28;20069;-75
2021/04/23 11:39:50;;;;;;;7.22;4.00;;;13.10;49.80;;;;;;5036645;28;20067;-75
2021/04/23 11:42:38;;;;;;;8.75;4.53;;;13.20;48.40;;;;;;5005118;28;20378;-75
2021/04/23 11:45:08;;;;;;;8.60;4.43;;;13.20;48.80;;;;;;5001774;28;20638;-75
2021/04/23 11:47:41;;;;;;;9.85;5.10;;;12.90;48.40;;;;;;5020157;28;20037;-76
2021/04/23 11:50:29;;;;;;;8.25;4.53;;;12.70;49.20;;;;;;5020888;28;20557;-76
2021/04/23 11:53:04;;;;;;;8.27;4.40;;;12.70;50.00;;;;;;5019342;28;20098;-75
2021/04/23 11:55:33;;;;;;;8.15;5.10;;;13.00;49.40;;;;;;5019716;28;20042;-75
2021/04/23 11:58:01;;;;;;;9.32;5.57;;;13.00;49.50;;;;;;5024751;28;20045;-75
2021/04/23 12:00:28;;;;;;;11.75;5.07;;;12.80;49.20;;;;;;5019474;28;20045;-74
2021/04/23 12:02:59;;;;;;;8.23;4.70;;;12.70;48.20;;;;;;4994857;28;20041;-76
2021/04/23 12:05:34;;;;;;;8.82;4.30;;;12.60;50.10;;;;;;5017573;28;20065;-76
2021/04/23 12:08:15;;;;;;;9.02;4.68;;;12.80;50.50;;;;;;5006371;28;20061;-76
2021/04/23 12:10:50;;;;;;;11.10;4.60;;;13.10;48.70;;;;;;4999707;28;20523;-75
2021/04/23 12:13:21;;;;;;;7.65;4.00;;;13.40;49.60;;;;;;5035900;28;20069;-75
2021/04/23 12:15:50;;;;;;;7.47;4.18;;;13.60;47.30;;;;;;5017132;28;20103;-73
2021/04/23 12:18:17;;;;;;;8.02;4.10;;;13.50;43.70;;;;;;5021364;28;20769;-75
2021/04/23 12:20:45;;;;;;;6.30;3.58;;;13.00;45.90;;;;;;5019767;28;20045;-76
2021/04/23 12:23:15;;;;;;;7.28;3.63;;;12.90;47.60;;;;;;5019935;28;20131;-75
2021/04/23 12:25:49;;;;;;;;;;;13.10;46.90;;;;;;5022919;28;20819;-76
2021/04/23 12:28:34;;;;;;;6.22;3.72;;;13.20;45.90;;;;;;5037195;28;19967;-76
2021/04/23 12:31:00;;;;;;;6.93;3.60;;;13.40;48.00;;;;;;5022451;28;20168;-76
2021/04/23 12:33:39;;;;;;;6.35;4.07;;;13.70;46.50;;;;;;5020135;28;20132;-74
2021/04/23 12:36:17;;;;;;;10.83;4.33;;;13.60;47.30;;;;;;5013373;28;20444;-75
2021/04/23 12:38:45;;;;;;;10.00;4.13;;;13.40;45.50;;;;;;5021047;28;20402;-76
2021/04/23 12:41:29;;;;;;;7.70;4.00;;;13.20;45.30;;;;;;5035684;28;20539;-75
2021/04/23 12:44:01;;;;;;;7.20;3.70;;;13.10;46.40;;;;;;5021682;28;20041;-76
2021/04/23 12:46:34;;;;;;;9.77;3.90;;;13.30;46.10;;;;;;5020806;28;20644;-76
2021/04/23 12:49:19;;;;;;;8.45;3.97;;;13.50;46.50;;;;;;5013215;28;20033;-77
2021/04/23 12:51:48;;;;;;;7.97;3.90;;;13.70;46.20;;;;;;5004992;28;20048;-77
2021/04/23 12:54:16;;;;;;;6.68;3.85;;;14.00;46.70;;;;;;5009232;28;20053;-77
2021/04/23 12:56:56;;;;;;;6.55;3.30;;;14.10;45.80;;;;;;5019730;28;20064;-77
2021/04/23 12:59:44;;;;;;;8.15;4.07;;;14.30;44.90;;;;;;5020496;28;20131;-77
2021/04/23 13:02:27;;;;;;;7.60;4.22;;;14.30;42.60;;;;;;4995586;28;20041;-77